sensor_id;sensor_type;location;lat;lon;timestamp;pressure;altitude;pressure_sealevel;temperature;humidity
84255;BME280;74400;44.692;18.998;2024-01-30T00:01:55;102046.84;;;-1.23;74.76
84255;BME280;74400;44.692;18.998;2024-01-30T00:04:21;102038.44;;;-1.23;72.99
84255;BME280;74400;44.692;18.998;2024-01-30T00:06:47;102045.00;;;-1.34;73.06
84255;BME280;74400;44.692;18.998;2024-01-30T00:09:12;102039.78;;;-1.42;73.37
84255;BME280;74400;44.692;18.998;2024-01-30T00:11:38;102046.38;;;-1.50;74.16
84255;BME280;74400;44.692;18.998;2024-01-30T00:14:04;102045.50;;;-1.52;74.81
84255;BME280;74400;44.692;18.998;2024-01-30T00:16:30;102040.56;;;-1.48;74.90
84255;BME280;74400;44.692;18.998;2024-01-30T00:18:56;102050.66;;;-1.48;74.78
84255;BME280;74400;44.692;18.998;2024-01-30T00:21:22;102042.97;;;-1.54;74.96
84255;BME280;74400;44.692;18.998;2024-01-30T00:23:48;102054.78;;;-1.50;74.34
84255;BME280;74400;44.692;18.998;2024-01-30T00:26:13;102052.28;;;-1.48;74.18
84255;BME280;74400;44.692;18.998;2024-01-30T00:28:40;102041.47;;;-1.43;73.86
84255;BME280;74400;44.692;18.998;2024-01-30T00:31:06;102048.06;;;-1.49;73.48
84255;BME280;74400;44.692;18.998;2024-01-30T00:33:32;102051.41;;;-1.52;74.11
84255;BME280;74400;44.692;18.998;2024-01-30T00:35:58;102049.53;;;-1.62;74.58
84255;BME280;74400;44.692;18.998;2024-01-30T00:38:23;102044.47;;;-1.62;74.81
84255;BME280;74400;44.692;18.998;2024-01-30T00:40:49;102053.69;;;-1.64;74.85
84255;BME280;74400;44.692;18.998;2024-01-30T00:43:15;102047.06;;;-1.59;74.99
84255;BME280;74400;44.692;18.998;2024-01-30T00:45:43;102053.97;;;-1.49;73.87
84255;BME280;74400;44.692;18.998;2024-01-30T00:48:09;102053.91;;;-1.53;74.21
84255;BME280;74400;44.692;18.998;2024-01-30T00:50:34;102048.81;;;-1.55;74.18
84255;BME280;74400;44.692;18.998;2024-01-30T00:53:00;102046.28;;;-1.55;74.66
84255;BME280;74400;44.692;18.998;2024-01-30T00:55:26;102045.38;;;-1.60;74.27
84255;BME280;74400;44.692;18.998;2024-01-30T00:57:51;102046.00;;;-1.70;73.84
84255;BME280;74400;44.692;18.998;2024-01-30T01:00:17;102040.72;;;-1.82;74.45
84255;BME280;74400;44.692;18.998;2024-01-30T01:02:43;102047.41;;;-1.86;75.50
84255;BME280;74400;44.692;18.998;2024-01-30T01:05:09;102049.81;;;-1.91;76.28
84255;BME280;74400;44.692;18.998;2024-01-30T01:07:35;102056.53;;;-1.91;76.96
84255;BME280;74400;44.692;18.998;2024-01-30T01:10:00;102047.53;;;-1.80;76.63
84255;BME280;74400;44.692;18.998;2024-01-30T01:12:26;102048.50;;;-1.73;75.88
84255;BME280;74400;44.692;18.998;2024-01-30T01:14:52;102050.09;;;-1.75;75.46
84255;BME280;74400;44.692;18.998;2024-01-30T01:17:17;102046.63;;;-1.80;74.89
84255;BME280;74400;44.692;18.998;2024-01-30T01:19:44;102049.78;;;-1.92;74.92
84255;BME280;74400;44.692;18.998;2024-01-30T01:22:10;102049.81;;;-1.91;75.63
84255;BME280;74400;44.692;18.998;2024-01-30T01:24:36;102043.91;;;-1.93;75.76
84255;BME280;74400;44.692;18.998;2024-01-30T01:27:02;102042.28;;;-1.89;75.38
84255;BME280;74400;44.692;18.998;2024-01-30T01:29:28;102040.56;;;-1.92;75.14
84255;BME280;74400;44.692;18.998;2024-01-30T01:31:58;102040.34;;;-2.02;75.69
84255;BME280;74400;44.692;18.998;2024-01-30T01:34:24;102041.91;;;-2.07;75.38
84255;BME280;74400;44.692;18.998;2024-01-30T01:39:16;102031.56;;;-2.20;75.70
84255;BME280;74400;44.692;18.998;2024-01-30T01:41:42;102031.56;;;-2.20;75.23
84255;BME280;74400;44.692;18.998;2024-01-30T01:44:08;102034.84;;;-2.24;76.10
84255;BME280;74400;44.692;18.998;2024-01-30T01:46:34;102040.66;;;-2.26;76.03
84255;BME280;74400;44.692;18.998;2024-01-30T01:49:02;102038.13;;;-2.28;76.44
84255;BME280;74400;44.692;18.998;2024-01-30T01:51:29;102040.88;;;-2.17;75.58
84255;BME280;74400;44.692;18.998;2024-01-30T01:53:57;102046.13;;;-2.06;74.41
84255;BME280;74400;44.692;18.998;2024-01-30T01:56:23;102043.59;;;-2.06;74.97
84255;BME280;74400;44.692;18.998;2024-01-30T02:01:17;102038.47;;;-2.12;74.98
84255;BME280;74400;44.692;18.998;2024-01-30T02:03:46;102035.88;;;-2.14;74.81
84255;BME280;74400;44.692;18.998;2024-01-30T02:06:13;102036.59;;;-2.20;75.44
84255;BME280;74400;44.692;18.998;2024-01-30T02:08:39;102039.78;;;-2.30;75.65
84255;BME280;74400;44.692;18.998;2024-01-30T02:11:05;102040.63;;;-2.29;76.08
84255;BME280;74400;44.692;18.998;2024-01-30T02:13:30;102036.41;;;-2.30;75.72
84255;BME280;74400;44.692;18.998;2024-01-30T02:15:56;102042.44;;;-2.22;76.21
84255;BME280;74400;44.692;18.998;2024-01-30T02:18:22;102038.50;;;-2.11;75.87
84255;BME280;74400;44.692;18.998;2024-01-30T02:20:48;102039.47;;;-2.03;75.16
84255;BME280;74400;44.692;18.998;2024-01-30T02:23:15;102037.81;;;-2.02;74.95
84255;BME280;74400;44.692;18.998;2024-01-30T02:25:42;102043.94;;;-1.91;75.45
84255;BME280;74400;44.692;18.998;2024-01-30T02:28:12;102038.97;;;-1.86;74.78
84255;BME280;74400;44.692;18.998;2024-01-30T02:30:42;102028.69;;;-1.97;74.20
84255;BME280;74400;44.692;18.998;2024-01-30T02:33:08;102038.50;;;-2.11;74.61
84255;BME280;74400;44.692;18.998;2024-01-30T02:35:34;102042.56;;;-2.16;74.23
84255;BME280;74400;44.692;18.998;2024-01-30T02:37:59;102037.38;;;-2.24;74.55
84255;BME280;74400;44.692;18.998;2024-01-30T02:40:25;102029.53;;;-2.37;75.18
84255;BME280;74400;44.692;18.998;2024-01-30T02:42:51;102048.88;;;-2.36;76.27
84255;BME280;74400;44.692;18.998;2024-01-30T02:45:17;102043.13;;;-2.29;75.90
84255;BME280;74400;44.692;18.998;2024-01-30T02:47:43;102042.31;;;-2.28;74.81
84255;BME280;74400;44.692;18.998;2024-01-30T02:50:08;102041.72;;;-2.18;75.67
84255;BME280;74400;44.692;18.998;2024-01-30T02:52:34;102043.44;;;-2.15;74.90
84255;BME280;74400;44.692;18.998;2024-01-30T02:55:00;102044.09;;;-2.24;74.33
84255;BME280;74400;44.692;18.998;2024-01-30T02:57:26;102042.31;;;-2.28;75.68
84255;BME280;74400;44.692;18.998;2024-01-30T02:59:51;102044.81;;;-2.30;74.28
84255;BME280;74400;44.692;18.998;2024-01-30T03:02:17;102052.22;;;-2.37;75.81
84255;BME280;74400;44.692;18.998;2024-01-30T03:04:43;102052.38;;;-2.30;75.90
84255;BME280;74400;44.692;18.998;2024-01-30T03:07:09;102053.31;;;-2.25;75.03
84255;BME280;74400;44.692;18.998;2024-01-30T03:09:36;102045.84;;;-2.20;74.92
84255;BME280;74400;44.692;18.998;2024-01-30T03:12:02;102041.72;;;-2.18;74.59
84255;BME280;74400;44.692;18.998;2024-01-30T03:14:32;102039.19;;;-2.18;74.99
84255;BME280;74400;44.692;18.998;2024-01-30T03:16:58;102035.88;;;-2.15;75.14
84255;BME280;74400;44.692;18.998;2024-01-30T03:19:24;102040.03;;;-2.17;75.27
84255;BME280;74400;44.692;18.998;2024-01-30T03:24:16;102028.75;;;-2.33;74.54
84255;BME280;74400;44.692;18.998;2024-01-30T03:26:43;102031.84;;;-2.47;75.55
84255;BME280;74400;44.692;18.998;2024-01-30T03:29:09;102030.13;;;-2.48;76.27
84255;BME280;74400;44.692;18.998;2024-01-30T03:31:35;102027.63;;;-2.48;75.99
84255;BME280;74400;44.692;18.998;2024-01-30T03:34:01;102035.00;;;-2.55;75.10
84255;BME280;74400;44.692;18.998;2024-01-30T03:36:27;102040.06;;;-2.55;76.19
84255;BME280;74400;44.692;18.998;2024-01-30T03:38:52;102035.78;;;-2.58;75.79
84255;BME280;74400;44.692;18.998;2024-01-30T03:41:18;102044.06;;;-2.63;76.10
84255;BME280;74400;44.692;18.998;2024-01-30T03:43:44;102035.69;;;-2.62;75.57
84255;BME280;74400;44.692;18.998;2024-01-30T03:46:12;102039.94;;;-2.60;75.89
84255;BME280;74400;44.692;18.998;2024-01-30T03:48:38;102040.75;;;-2.61;75.52
84255;BME280;74400;44.692;18.998;2024-01-30T03:51:04;102032.53;;;-2.52;76.58
84255;BME280;74400;44.692;18.998;2024-01-30T03:53:30;102041.88;;;-2.48;75.31
84255;BME280;74400;44.692;18.998;2024-01-30T03:55:56;102042.63;;;-2.52;75.24
84255;BME280;74400;44.692;18.998;2024-01-30T03:58:21;102045.91;;;-2.56;75.32
84255;BME280;74400;44.692;18.998;2024-01-30T04:00:47;102041.59;;;-2.62;75.82
84255;BME280;74400;44.692;18.998;2024-01-30T04:03:16;102039.09;;;-2.60;75.56
84255;BME280;74400;44.692;18.998;2024-01-30T04:05:42;102043.22;;;-2.64;75.24
84255;BME280;74400;44.692;18.998;2024-01-30T04:08:08;102042.19;;;-2.70;74.84
84255;BME280;74400;44.692;18.998;2024-01-30T04:10:34;102037.09;;;-2.74;75.79
84255;BME280;74400;44.692;18.998;2024-01-30T04:12:59;102045.47;;;-2.76;75.49
84255;BME280;74400;44.692;18.998;2024-01-30T04:15:25;102048.03;;;-2.73;74.96
84255;BME280;74400;44.692;18.998;2024-01-30T04:17:51;102051.22;;;-2.80;75.47
84255;BME280;74400;44.692;18.998;2024-01-30T04:20:17;102048.75;;;-2.79;75.67
84255;BME280;74400;44.692;18.998;2024-01-30T04:22:46;102052.16;;;-2.77;74.55
84255;BME280;74400;44.692;18.998;2024-01-30T04:25:13;102047.78;;;-2.84;74.95
84255;BME280;74400;44.692;18.998;2024-01-30T04:27:39;102052.75;;;-2.87;75.25
84255;BME280;74400;44.692;18.998;2024-01-30T04:30:05;102047.75;;;-2.85;75.30
84255;BME280;74400;44.692;18.998;2024-01-30T04:32:32;102047.75;;;-2.85;75.12
84255;BME280;74400;44.692;18.998;2024-01-30T04:34:58;102050.44;;;-2.78;75.83
84255;BME280;74400;44.692;18.998;2024-01-30T04:37:23;102054.63;;;-2.78;74.95
84255;BME280;74400;44.692;18.998;2024-01-30T04:42:16;102065.50;;;-2.79;75.78
84255;BME280;74400;44.692;18.998;2024-01-30T04:44:42;102058.06;;;-2.76;74.85
84255;BME280;74400;44.692;18.998;2024-01-30T04:47:08;102051.16;;;-2.83;75.39
84255;BME280;74400;44.692;18.998;2024-01-30T04:49:36;102050.19;;;-2.88;75.54
84255;BME280;74400;44.692;18.998;2024-01-30T04:52:02;102056.22;;;-2.83;75.70
84255;BME280;74400;44.692;18.998;2024-01-30T04:54:28;102061.41;;;-2.76;76.61
84255;BME280;74400;44.692;18.998;2024-01-30T04:56:53;102056.47;;;-2.71;75.38
84255;BME280;74400;44.692;18.998;2024-01-30T04:59:19;102058.19;;;-2.70;74.76
84255;BME280;74400;44.692;18.998;2024-01-30T05:01:45;102057.91;;;-2.82;74.85
84255;BME280;74400;44.692;18.998;2024-01-30T05:04:10;102059.47;;;-2.87;75.11
84255;BME280;74400;44.692;18.998;2024-01-30T05:06:36;102061.09;;;-2.89;74.40
84255;BME280;74400;44.692;18.998;2024-01-30T05:09:02;102059.47;;;-2.87;75.30
84255;BME280;74400;44.692;18.998;2024-01-30T05:11:30;102067.06;;;-2.84;75.32
84255;BME280;74400;44.692;18.998;2024-01-30T05:13:55;102057.09;;;-2.81;74.59
84255;BME280;74400;44.692;18.998;2024-01-30T05:16:40;102057.78;;;-2.87;74.22
84255;BME280;74400;44.692;18.998;2024-01-30T05:19:06;102057.75;;;-2.88;74.58
84255;BME280;74400;44.692;18.998;2024-01-30T05:21:32;102059.56;;;-2.83;74.75
84255;BME280;74400;44.692;18.998;2024-01-30T05:23:57;102052.88;;;-2.82;73.63
84255;BME280;74400;44.692;18.998;2024-01-30T05:26:23;102059.22;;;-2.96;74.68
84255;BME280;74400;44.692;18.998;2024-01-30T05:28:49;102056.59;;;-3.01;74.85
84255;BME280;74400;44.692;18.998;2024-01-30T05:31:15;102055.81;;;-2.98;74.56
84255;BME280;74400;44.692;18.998;2024-01-30T05:33:40;102056.06;;;-2.89;74.94
84255;BME280;74400;44.692;18.998;2024-01-30T05:36:11;102053.16;;;-2.70;74.96
84255;BME280;74400;44.692;18.998;2024-01-30T05:38:37;102062.59;;;-2.61;74.41
84255;BME280;74400;44.692;18.998;2024-01-30T05:41:03;102064.09;;;-2.69;73.52
84255;BME280;74400;44.692;18.998;2024-01-30T05:43:29;102055.53;;;-2.76;73.77
84255;BME280;74400;44.692;18.998;2024-01-30T05:45:55;102058.66;;;-2.85;74.72
84255;BME280;74400;44.692;18.998;2024-01-30T05:48:21;102060.38;;;-2.84;74.52
84255;BME280;74400;44.692;18.998;2024-01-30T05:50:47;102056.16;;;-2.85;74.74
84255;BME280;74400;44.692;18.998;2024-01-30T05:53:12;102057.06;;;-2.83;74.65
84255;BME280;74400;44.692;18.998;2024-01-30T05:59:08;102052.28;;;-3.07;74.96
84255;BME280;74400;44.692;18.998;2024-01-30T06:04:48;102063.41;;;-2.97;75.33
84255;BME280;74400;44.692;18.998;2024-01-30T06:07:14;102065.41;;;-2.84;74.09
84255;BME280;74400;44.692;18.998;2024-01-30T06:09:39;102068.28;;;-2.70;74.00
84255;BME280;74400;44.692;18.998;2024-01-30T06:12:06;102075.91;;;-2.65;73.17
84255;BME280;74400;44.692;18.998;2024-01-30T06:14:32;102066.69;;;-2.65;73.73
84255;BME280;74400;44.692;18.998;2024-01-30T06:16:59;102064.16;;;-2.65;73.57
84255;BME280;74400;44.692;18.998;2024-01-30T06:19:25;102064.94;;;-2.69;73.44
84255;BME280;74400;44.692;18.998;2024-01-30T06:21:50;102066.38;;;-2.79;73.20
84255;BME280;74400;44.692;18.998;2024-01-30T06:24:16;102074.91;;;-2.72;73.50
84255;BME280;74400;44.692;18.998;2024-01-30T06:30:12;102079.69;;;-2.48;72.77
84255;BME280;74400;44.692;18.998;2024-01-30T06:32:38;102078.75;;;-2.52;72.40
84255;BME280;74400;44.692;18.998;2024-01-30T06:35:05;102083.59;;;-2.61;72.24
84255;BME280;74400;44.692;18.998;2024-01-30T06:37:31;102071.66;;;-2.68;72.33
84255;BME280;74400;44.692;18.998;2024-01-30T06:39:57;102070.72;;;-2.72;73.37
84255;BME280;74400;44.692;18.998;2024-01-30T06:42:23;102074.44;;;-2.57;72.67
84255;BME280;74400;44.692;18.998;2024-01-30T06:44:49;102077.13;;;-2.50;71.91
84255;BME280;74400;44.692;18.998;2024-01-30T06:47:26;102066.22;;;-2.49;72.17
84255;BME280;74400;44.692;18.998;2024-01-30T06:49:57;102073.53;;;-2.59;73.07
84255;BME280;74400;44.692;18.998;2024-01-30T06:55:54;102075.28;;;-2.57;72.93
84255;BME280;74400;44.692;18.998;2024-01-30T06:58:20;102076.56;;;-2.38;73.38
84255;BME280;74400;44.692;18.998;2024-01-30T07:00:48;102070.16;;;-2.22;72.62
84255;BME280;74400;44.692;18.998;2024-01-30T07:03:14;102082.81;;;-2.19;72.21
84255;BME280;74400;44.692;18.998;2024-01-30T07:05:39;102069.16;;;-2.30;70.97
84255;BME280;74400;44.692;18.998;2024-01-30T07:08:05;102076.47;;;-2.41;71.95
84255;BME280;74400;44.692;18.998;2024-01-30T07:10:31;102077.75;;;-2.58;71.99
84255;BME280;74400;44.692;18.998;2024-01-30T07:12:57;102081.25;;;-2.52;73.18
84255;BME280;74400;44.692;18.998;2024-01-30T07:15:23;102084.06;;;-2.39;73.37
84255;BME280;74400;44.692;18.998;2024-01-30T07:17:48;102088.81;;;-2.14;72.63
84255;BME280;74400;44.692;18.998;2024-01-30T07:20:14;102094.38;;;-1.91;70.44
84255;BME280;74400;44.692;18.998;2024-01-30T07:22:40;102091.28;;;-1.78;70.96
84255;BME280;74400;44.692;18.998;2024-01-30T07:25:07;102093.13;;;-1.68;69.88
84255;BME280;74400;44.692;18.998;2024-01-30T07:27:32;102094.03;;;-1.67;70.49
84255;BME280;74400;44.692;18.998;2024-01-30T07:29:58;102085.00;;;-1.54;70.27
84255;BME280;74400;44.692;18.998;2024-01-30T07:40:48;102094.31;;;4.39;54.41
84255;BME280;74400;44.692;18.998;2024-01-30T07:43:15;102095.06;;;6.39;48.48
84255;BME280;74400;44.692;18.998;2024-01-30T07:45:41;102103.09;;;7.28;45.30
84255;BME280;74400;44.692;18.998;2024-01-30T07:48:40;102110.69;;;8.66;41.20
84255;BME280;74400;44.692;18.998;2024-01-30T07:51:06;102115.97;;;9.31;40.22
84255;BME280;74400;44.692;18.998;2024-01-30T07:53:31;102108.38;;;9.28;39.37
84255;BME280;74400;44.692;18.998;2024-01-30T07:55:58;102118.25;;;9.43;39.58
84255;BME280;74400;44.692;18.998;2024-01-30T07:58:24;102108.84;;;10.37;37.05
84255;BME280;74400;44.692;18.998;2024-01-30T08:00:53;102110.84;;;10.55;37.08
84255;BME280;74400;44.692;18.998;2024-01-30T08:03:19;102102.94;;;10.62;37.45
84255;BME280;74400;44.692;18.998;2024-01-30T08:05:44;102113.91;;;10.68;37.01
84255;BME280;74400;44.692;18.998;2024-01-30T08:08:13;102107.72;;;10.74;36.76
84255;BME280;74400;44.692;18.998;2024-01-30T08:10:39;102114.34;;;11.85;34.49
84255;BME280;74400;44.692;18.998;2024-01-30T08:13:08;102116.66;;;11.68;34.41
84255;BME280;74400;44.692;18.998;2024-01-30T08:15:34;102104.34;;;12.46;33.00
84255;BME280;74400;44.692;18.998;2024-01-30T08:18:00;102114.91;;;12.84;33.30
84255;BME280;74400;44.692;18.998;2024-01-30T08:20:30;102111.41;;;12.41;33.50
84255;BME280;74400;44.692;18.998;2024-01-30T08:22:55;102115.84;;;11.91;34.36
84255;BME280;74400;44.692;18.998;2024-01-30T08:25:28;102109.91;;;12.36;33.94
84255;BME280;74400;44.692;18.998;2024-01-30T08:27:55;102113.44;;;12.55;33.83
84255;BME280;74400;44.692;18.998;2024-01-30T08:33:48;102106.97;;;12.00;35.15
84255;BME280;74400;44.692;18.998;2024-01-30T08:36:15;102106.34;;;13.04;32.61
84255;BME280;74400;44.692;18.998;2024-01-30T08:38:40;102112.03;;;13.34;32.02
84255;BME280;74400;44.692;18.998;2024-01-30T08:41:11;102111.00;;;13.98;31.79
84255;BME280;74400;44.692;18.998;2024-01-30T08:43:46;102107.81;;;14.30;30.49
84255;BME280;74400;44.692;18.998;2024-01-30T08:46:12;102100.78;;;14.70;30.73
84255;BME280;74400;44.692;18.998;2024-01-30T08:48:38;102107.44;;;14.19;31.26
84255;BME280;74400;44.692;18.998;2024-01-30T08:51:04;102110.03;;;14.57;30.85
84255;BME280;74400;44.692;18.998;2024-01-30T08:53:34;102106.75;;;14.89;30.46
84255;BME280;74400;44.692;18.998;2024-01-30T08:56:02;102116.63;;;14.64;31.13
84255;BME280;74400;44.692;18.998;2024-01-30T08:58:27;102115.75;;;15.34;29.89
84255;BME280;74400;44.692;18.998;2024-01-30T09:00:53;102114.44;;;15.26;30.27
84255;BME280;74400;44.692;18.998;2024-01-30T09:03:20;102114.16;;;15.14;30.56
84255;BME280;74400;44.692;18.998;2024-01-30T09:05:46;102116.97;;;15.10;30.62
84255;BME280;74400;44.692;18.998;2024-01-30T09:08:12;102119.63;;;15.60;30.14
84255;BME280;74400;44.692;18.998;2024-01-30T09:10:37;102122.78;;;15.67;29.90
84255;BME280;74400;44.692;18.998;2024-01-30T09:13:03;102120.19;;;15.67;30.25
84255;BME280;74400;44.692;18.998;2024-01-30T09:18:30;102121.53;;;15.57;30.02
84255;BME280;74400;44.692;18.998;2024-01-30T09:20:57;102118.19;;;15.37;31.17
84255;BME280;74400;44.692;18.998;2024-01-30T09:23:23;102113.47;;;15.63;31.04
84255;BME280;74400;44.692;18.998;2024-01-30T09:25:49;102122.53;;;15.02;31.16
84255;BME280;74400;44.692;18.998;2024-01-30T09:39:21;102117.59;;;12.14;37.51
84255;BME280;74400;44.692;18.998;2024-01-30T09:44:20;102106.19;;;9.78;42.92
84255;BME280;74400;44.692;18.998;2024-01-30T09:49:17;102103.63;;;7.47;49.14
84255;BME280;74400;44.692;18.998;2024-01-30T09:51:45;102096.63;;;6.49;52.44
84255;BME280;74400;44.692;18.998;2024-01-30T09:54:47;102087.91;;;5.97;54.97
84255;BME280;74400;44.692;18.998;2024-01-30T09:57:15;102091.63;;;5.66;55.75
84255;BME280;74400;44.692;18.998;2024-01-30T09:59:42;102090.19;;;5.39;56.44
84255;BME280;74400;44.692;18.998;2024-01-30T10:02:14;102079.03;;;5.49;56.00
84255;BME280;74400;44.692;18.998;2024-01-30T10:04:45;102078.25;;;5.42;56.65
84255;BME280;74400;44.692;18.998;2024-01-30T10:07:14;102068.84;;;5.49;55.62
84255;BME280;74400;44.692;18.998;2024-01-30T10:09:40;102076.44;;;5.52;55.86
84255;BME280;74400;44.692;18.998;2024-01-30T10:12:47;102072.97;;;5.61;54.68
84255;BME280;74400;44.692;18.998;2024-01-30T10:15:14;102070.72;;;5.29;54.93
84255;BME280;74400;44.692;18.998;2024-01-30T10:17:40;102063.00;;;5.36;54.18
84255;BME280;74400;44.692;18.998;2024-01-30T10:20:08;102056.97;;;5.40;53.88
84255;BME280;74400;44.692;18.998;2024-01-30T10:22:34;102063.66;;;5.55;54.01
84255;BME280;74400;44.692;18.998;2024-01-30T10:25:00;102062.50;;;5.82;52.97
84255;BME280;74400;44.692;18.998;2024-01-30T10:27:29;102054.78;;;5.93;51.71
84255;BME280;74400;44.692;18.998;2024-01-30T10:29:55;102057.19;;;6.04;49.03
84255;BME280;74400;44.692;18.998;2024-01-30T10:32:22;102046.94;;;6.05;48.73
84255;BME280;74400;44.692;18.998;2024-01-30T10:34:48;102051.44;;;5.83;48.17
84255;BME280;74400;44.692;18.998;2024-01-30T10:37:15;102038.59;;;5.89;48.05
84255;BME280;74400;44.692;18.998;2024-01-30T10:39:44;102036.84;;;5.96;47.96
84255;BME280;74400;44.692;18.998;2024-01-30T10:42:15;102031.72;;;5.99;47.86
84255;BME280;74400;44.692;18.998;2024-01-30T10:47:21;102023.75;;;6.20;47.47
84255;BME280;74400;44.692;18.998;2024-01-30T10:49:52;102025.44;;;6.21;47.40
84255;BME280;74400;44.692;18.998;2024-01-30T10:52:18;102019.50;;;6.21;47.23
84255;BME280;74400;44.692;18.998;2024-01-30T10:54:45;102023.75;;;6.20;47.01
84255;BME280;74400;44.692;18.998;2024-01-30T10:57:12;102028.94;;;6.14;46.63
84255;BME280;74400;44.692;18.998;2024-01-30T10:59:38;102013.69;;;6.08;45.27
84255;BME280;74400;44.692;18.998;2024-01-30T11:02:05;102014.56;;;6.07;46.21
84255;BME280;74400;44.692;18.998;2024-01-30T11:04:40;102010.28;;;6.09;45.44
84255;BME280;74400;44.692;18.998;2024-01-30T11:07:23;102019.78;;;6.00;45.50
84255;BME280;74400;44.692;18.998;2024-01-30T11:12:22;102003.47;;;6.08;44.36
84255;BME280;74400;44.692;18.998;2024-01-30T11:14:48;101997.38;;;6.20;44.86
84255;BME280;74400;44.692;18.998;2024-01-30T11:17:14;101995.72;;;6.16;44.72
84255;BME280;74400;44.692;18.998;2024-01-30T11:19:44;101994.88;;;6.15;45.36
84255;BME280;74400;44.692;18.998;2024-01-30T11:22:11;101992.09;;;6.31;44.52
84255;BME280;74400;44.692;18.998;2024-01-30T11:24:40;101994.03;;;6.15;45.71
84255;BME280;74400;44.692;18.998;2024-01-30T11:27:10;101984.63;;;6.18;45.24
84255;BME280;74400;44.692;18.998;2024-01-30T11:29:36;101993.00;;;6.27;45.10
84255;BME280;74400;44.692;18.998;2024-01-30T11:32:02;101992.94;;;6.30;46.38
84255;BME280;74400;44.692;18.998;2024-01-30T11:34:28;101981.69;;;6.43;45.54
84255;BME280;74400;44.692;18.998;2024-01-30T11:36:59;101985.88;;;6.47;45.61
84255;BME280;74400;44.692;18.998;2024-01-30T11:39:25;101989.25;;;6.49;46.10
84255;BME280;74400;44.692;18.998;2024-01-30T11:41:52;101987.72;;;6.39;46.74
84255;BME280;74400;44.692;18.998;2024-01-30T11:44:19;101986.03;;;6.38;46.14
84255;BME280;74400;44.692;18.998;2024-01-30T11:46:50;101980.19;;;6.30;46.46
84255;BME280;74400;44.692;18.998;2024-01-30T11:49:16;101977.47;;;6.40;46.77
84255;BME280;74400;44.692;18.998;2024-01-30T11:54:48;101967.28;;;6.37;47.53
84255;BME280;74400;44.692;18.998;2024-01-30T11:57:17;101972.34;;;6.40;46.62
84255;BME280;74400;44.692;18.998;2024-01-30T11:59:43;101969.88;;;6.36;47.23
84255;BME280;74400;44.692;18.998;2024-01-30T12:02:09;101970.75;;;6.35;47.63
84255;BME280;74400;44.692;18.998;2024-01-30T12:04:34;101958.00;;;6.33;47.35
84255;BME280;74400;44.692;18.998;2024-01-30T12:07:00;101959.59;;;6.40;47.56
84255;BME280;74400;44.692;18.998;2024-01-30T12:09:26;101946.03;;;6.35;48.01
84255;BME280;74400;44.692;18.998;2024-01-30T12:11:53;101955.38;;;6.36;48.70
84255;BME280;74400;44.692;18.998;2024-01-30T12:14:19;101949.50;;;6.30;47.99
84255;BME280;74400;44.692;18.998;2024-01-30T12:16:48;101956.34;;;6.29;48.68
84255;BME280;74400;44.692;18.998;2024-01-30T12:19:25;101951.31;;;6.23;48.89
84255;BME280;74400;44.692;18.998;2024-01-30T12:21:56;101951.22;;;6.29;48.73
84255;BME280;74400;44.692;18.998;2024-01-30T12:24:25;101945.34;;;6.26;47.93
84255;BME280;74400;44.692;18.998;2024-01-30T12:26:51;101938.56;;;6.21;49.19
84255;BME280;74400;44.692;18.998;2024-01-30T12:29:20;101935.22;;;6.16;49.29
84255;BME280;74400;44.692;18.998;2024-01-30T12:31:46;101935.22;;;6.16;49.69
84255;BME280;74400;44.692;18.998;2024-01-30T12:34:14;101933.59;;;6.11;49.22
84255;BME280;74400;44.692;18.998;2024-01-30T12:36:43;101932.84;;;6.04;49.92
84255;BME280;74400;44.692;18.998;2024-01-30T12:39:12;101925.16;;;6.07;50.51
84255;BME280;74400;44.692;18.998;2024-01-30T12:44:57;101927.72;;;6.07;49.61
84255;BME280;74400;44.692;18.998;2024-01-30T12:47:23;101928.50;;;6.12;50.36
84255;BME280;74400;44.692;18.998;2024-01-30T12:49:49;101923.31;;;6.17;50.17
84255;BME280;74400;44.692;18.998;2024-01-30T12:52:16;101923.41;;;6.12;48.85
84255;BME280;74400;44.692;18.998;2024-01-30T12:54:42;101923.41;;;6.09;48.66
84255;BME280;74400;44.692;18.998;2024-01-30T12:57:08;101912.34;;;6.12;49.88
84255;BME280;74400;44.692;18.998;2024-01-30T12:59:33;101914.03;;;6.10;49.41
84255;BME280;74400;44.692;18.998;2024-01-30T13:02:00;101914.03;;;6.10;49.44
84255;BME280;74400;44.692;18.998;2024-01-30T13:04:27;101913.19;;;6.12;49.51
84255;BME280;74400;44.692;18.998;2024-01-30T13:06:53;101918.28;;;6.12;48.26
84255;BME280;74400;44.692;18.998;2024-01-30T13:09:19;101911.53;;;6.08;48.77
84255;BME280;74400;44.692;18.998;2024-01-30T13:11:45;101916.66;;;6.07;49.17
84255;BME280;74400;44.692;18.998;2024-01-30T13:14:11;101912.34;;;6.10;49.50
84255;BME280;74400;44.692;18.998;2024-01-30T13:16:38;101910.00;;;5.95;49.12
84255;BME280;74400;44.692;18.998;2024-01-30T13:19:03;101901.50;;;5.94;48.89
84255;BME280;74400;44.692;18.998;2024-01-30T13:21:29;101904.78;;;6.03;49.20
84255;BME280;74400;44.692;18.998;2024-01-30T13:23:55;101908.09;;;6.09;48.32
84255;BME280;74400;44.692;18.998;2024-01-30T13:29:48;101904.59;;;6.15;49.62
84255;BME280;74400;44.692;18.998;2024-01-30T13:32:14;101901.16;;;6.17;49.78
84255;BME280;74400;44.692;18.998;2024-01-30T13:34:40;101896.88;;;6.18;49.86
84255;BME280;74400;44.692;18.998;2024-01-30T13:37:06;101895.06;;;6.24;48.49
84255;BME280;74400;44.692;18.998;2024-01-30T13:39:32;101901.06;;;6.23;48.37
84255;BME280;74400;44.692;18.998;2024-01-30T13:41:57;101905.38;;;6.20;47.99
84255;BME280;74400;44.692;18.998;2024-01-30T13:44:23;101896.19;;;6.08;48.81
84255;BME280;74400;44.692;18.998;2024-01-30T13:46:49;101903.78;;;6.13;48.79
84255;BME280;74400;44.692;18.998;2024-01-30T13:49:15;101905.41;;;6.17;49.22
84255;BME280;74400;44.692;18.998;2024-01-30T13:51:40;101903.03;;;6.06;49.51